sensor_id;sensor_type;location;lat;lon;timestamp;P1;durP1;ratioP1;P2;durP2;ratioP2
4325;SDS011;58429;49.826;10.880;2022-11-15T00:00:54;26.8;;;15.5;;
4325;SDS011;58429;49.826;10.880;2022-11-15T00:01:54;24.4;;;13.4;;
4325;SDS011;58429;49.826;10.880;2022-11-15T00:02:54;24.4;;;13.4;;
4325;SDS011;58429;49.826;10.880;2022-11-15T00:03:54;24.4;;;13.4;;
4325;SDS011;58429;49.826;10.880;2022-11-15T00:04:54;29.6;;;14.7;;
4325;SDS011;58429;49.826;10.880;2022-11-15T00:05:54;29.6;;;14.7;;
4325;SDS011;58429;49.826;10.880;2022-11-15T00:06:54;29.6;;;14.7;;
4325;SDS011;58429;49.826;10.880;2022-11-15T00:07:54;22.8;;;11;;
4325;SDS011;58429;49.826;10.880;2022-11-15T00:08:54;22.8;;;11;;
4325;SDS011;58429;49.826;10.880;2022-11-15T00:09:54;22.8;;;11;;
4325;SDS011;58429;49.826;10.880;2022-11-15T00:10:54;20.6;;;8.6;;
4325;SDS011;58429;49.826;10.880;2022-11-15T00:11:54;20.6;;;8.6;;
4325;SDS011;58429;49.826;10.880;2022-11-15T00:12:54;20.6;;;8.6;;
4325;SDS011;58429;49.826;10.880;2022-11-15T00:13:54;12.8;;;5.9;;
4325;SDS011;58429;49.826;10.880;2022-11-15T00:14:54;12.8;;;5.9;;
4325;SDS011;58429;49.826;10.880;2022-11-15T00:15:56;12.8;;;5.9;;
4325;SDS011;58429;49.826;10.880;2022-11-15T00:16:54;16.3;;;7.9;;
4325;SDS011;58429;49.826;10.880;2022-11-15T00:17:54;16.3;;;7.9;;
4325;SDS011;58429;49.826;10.880;2022-11-15T00:18:54;16.3;;;7.9;;
4325;SDS011;58429;49.826;10.880;2022-11-15T00:19:54;15.4;;;6;;
4325;SDS011;58429;49.826;10.880;2022-11-15T00:20:54;15.4;;;6;;
4325;SDS011;58429;49.826;10.880;2022-11-15T00:21:54;15.4;;;6;;
4325;SDS011;58429;49.826;10.880;2022-11-15T00:22:54;11.1;;;4.6;;
4325;SDS011;58429;49.826;10.880;2022-11-15T00:23:54;11.1;;;4.6;;
4325;SDS011;58429;49.826;10.880;2022-11-15T00:24:54;11.1;;;4.6;;
4325;SDS011;58429;49.826;10.880;2022-11-15T00:25:55;12.3;;;5.5;;
4325;SDS011;58429;49.826;10.880;2022-11-15T00:26:54;12.3;;;5.5;;
4325;SDS011;58429;49.826;10.880;2022-11-15T00:27:55;12.3;;;5.5;;
4325;SDS011;58429;49.826;10.880;2022-11-15T00:28:54;11.3;;;5;;
4325;SDS011;58429;49.826;10.880;2022-11-15T00:29:54;11.3;;;5;;
4325;SDS011;58429;49.826;10.880;2022-11-15T00:30:59;11.3;;;5;;
4325;SDS011;58429;49.826;10.880;2022-11-15T00:31:54;17.4;;;7.6;;
4325;SDS011;58429;49.826;10.880;2022-11-15T00:32:54;17.4;;;7.6;;
4325;SDS011;58429;49.826;10.880;2022-11-15T00:33:54;17.4;;;7.6;;
4325;SDS011;58429;49.826;10.880;2022-11-15T00:34:54;54.2;;;22.4;;
4325;SDS011;58429;49.826;10.880;2022-11-15T00:35:58;54.2;;;22.4;;
4325;SDS011;58429;49.826;10.880;2022-11-15T00:36:54;54.2;;;22.4;;
4325;SDS011;58429;49.826;10.880;2022-11-15T00:37:54;22;;;9.2;;
4325;SDS011;58429;49.826;10.880;2022-11-15T00:38:54;22;;;9.2;;
4325;SDS011;58429;49.826;10.880;2022-11-15T00:39:54;22;;;9.2;;
4325;SDS011;58429;49.826;10.880;2022-11-15T00:40:54;14.9;;;5.8;;
4325;SDS011;58429;49.826;10.880;2022-11-15T00:41:54;14.9;;;5.8;;
4325;SDS011;58429;49.826;10.880;2022-11-15T00:42:54;14.9;;;5.8;;
4325;SDS011;58429;49.826;10.880;2022-11-15T00:43:54;26.9;;;9.1;;
4325;SDS011;58429;49.826;10.880;2022-11-15T00:44:54;26.9;;;9.1;;
4325;SDS011;58429;49.826;10.880;2022-11-15T00:45:54;26.9;;;9.1;;
4325;SDS011;58429;49.826;10.880;2022-11-15T00:46:54;23.3;;;8.9;;
4325;SDS011;58429;49.826;10.880;2022-11-15T00:47:54;23.3;;;8.9;;
4325;SDS011;58429;49.826;10.880;2022-11-15T00:48:54;23.3;;;8.9;;
4325;SDS011;58429;49.826;10.880;2022-11-15T00:49:54;29.4;;;13;;
4325;SDS011;58429;49.826;10.880;2022-11-15T00:50:54;29.4;;;13;;
4325;SDS011;58429;49.826;10.880;2022-11-15T00:51:54;29.4;;;13;;
4325;SDS011;58429;49.826;10.880;2022-11-15T00:52:54;28;;;13;;
4325;SDS011;58429;49.826;10.880;2022-11-15T00:53:54;28;;;13;;
4325;SDS011;58429;49.826;10.880;2022-11-15T00:54:54;28;;;13;;
4325;SDS011;58429;49.826;10.880;2022-11-15T00:55:54;13.1;;;4.8;;
4325;SDS011;58429;49.826;10.880;2022-11-15T00:56:54;13.1;;;4.8;;
4325;SDS011;58429;49.826;10.880;2022-11-15T00:57:54;13.1;;;4.8;;
4325;SDS011;58429;49.826;10.880;2022-11-15T00:58:54;11.5;;;4.8;;
4325;SDS011;58429;49.826;10.880;2022-11-15T00:59:54;11.5;;;4.8;;
4325;SDS011;58429;49.826;10.880;2022-11-15T01:00:54;11.5;;;4.8;;
4325;SDS011;58429;49.826;10.880;2022-11-15T01:01:54;9.5;;;4.2;;
4325;SDS011;58429;49.826;10.880;2022-11-15T01:02:54;9.5;;;4.2;;
4325;SDS011;58429;49.826;10.880;2022-11-15T01:03:54;9.5;;;4.2;;
4325;SDS011;58429;49.826;10.880;2022-11-15T01:04:54;9.5;;;4.2;;
4325;SDS011;58429;49.826;10.880;2022-11-15T01:05:56;11;;;4.9;;
4325;SDS011;58429;49.826;10.880;2022-11-15T01:06:54;11;;;4.9;;
4325;SDS011;58429;49.826;10.880;2022-11-15T01:07:54;11;;;4.9;;
4325;SDS011;58429;49.826;10.880;2022-11-15T01:08:54;12.7;;;5.2;;
4325;SDS011;58429;49.826;10.880;2022-11-15T01:09:54;12.7;;;5.2;;
4325;SDS011;58429;49.826;10.880;2022-11-15T01:10:54;12.7;;;5.2;;
4325;SDS011;58429;49.826;10.880;2022-11-15T01:11:54;13.2;;;5.4;;
4325;SDS011;58429;49.826;10.880;2022-11-15T01:12:54;13.2;;;5.4;;
4325;SDS011;58429;49.826;10.880;2022-11-15T01:13:54;13.2;;;5.4;;
4325;SDS011;58429;49.826;10.880;2022-11-15T01:14:54;13.5;;;5.4;;
4325;SDS011;58429;49.826;10.880;2022-11-15T01:15:54;13.5;;;5.4;;
4325;SDS011;58429;49.826;10.880;2022-11-15T01:16:54;13.5;;;5.4;;
4325;SDS011;58429;49.826;10.880;2022-11-15T01:17:54;10.3;;;4.7;;
4325;SDS011;58429;49.826;10.880;2022-11-15T01:18:54;10.3;;;4.7;;
4325;SDS011;58429;49.826;10.880;2022-11-15T01:19:54;10.3;;;4.7;;
4325;SDS011;58429;49.826;10.880;2022-11-15T01:20:54;9.4;;;4.1;;
4325;SDS011;58429;49.826;10.880;2022-11-15T01:21:54;9.4;;;4.1;;
4325;SDS011;58429;49.826;10.880;2022-11-15T01:22:54;9.4;;;4.1;;
4325;SDS011;58429;49.826;10.880;2022-11-15T01:23:54;9.5;;;4;;
4325;SDS011;58429;49.826;10.880;2022-11-15T01:24:54;9.5;;;4;;
4325;SDS011;58429;49.826;10.880;2022-11-15T01:25:58;9.5;;;4;;
4325;SDS011;58429;49.826;10.880;2022-11-15T01:26:54;12.2;;;4.8;;
4325;SDS011;58429;49.826;10.880;2022-11-15T01:27:54;12.2;;;4.8;;
4325;SDS011;58429;49.826;10.880;2022-11-15T01:28:54;12.2;;;4.8;;
4325;SDS011;58429;49.826;10.880;2022-11-15T01:29:54;17.7;;;6.6;;
4325;SDS011;58429;49.826;10.880;2022-11-15T01:30:57;17.7;;;6.6;;
4325;SDS011;58429;49.826;10.880;2022-11-15T01:31:54;17.7;;;6.6;;
4325;SDS011;58429;49.826;10.880;2022-11-15T01:32:54;19.6;;;8;;
4325;SDS011;58429;49.826;10.880;2022-11-15T01:33:54;19.6;;;8;;
4325;SDS011;58429;49.826;10.880;2022-11-15T01:34:54;19.6;;;8;;
4325;SDS011;58429;49.826;10.880;2022-11-15T01:35:54;17.1;;;6.5;;
4325;SDS011;58429;49.826;10.880;2022-11-15T01:36:54;17.1;;;6.5;;
4325;SDS011;58429;49.826;10.880;2022-11-15T01:37:54;17.1;;;6.5;;
4325;SDS011;58429;49.826;10.880;2022-11-15T01:38:54;25.4;;;9.4;;
4325;SDS011;58429;49.826;10.880;2022-11-15T01:39:54;25.4;;;9.4;;
4325;SDS011;58429;49.826;10.880;2022-11-15T01:40:54;25.4;;;9.4;;
4325;SDS011;58429;49.826;10.880;2022-11-15T01:41:55;9.6;;;4;;
4325;SDS011;58429;49.826;10.880;2022-11-15T01:42:54;9.6;;;4;;
4325;SDS011;58429;49.826;10.880;2022-11-15T01:43:55;9.6;;;4;;
4325;SDS011;58429;49.826;10.880;2022-11-15T01:44:54;12.8;;;5.1;;
4325;SDS011;58429;49.826;10.880;2022-11-15T01:45:55;12.8;;;5.1;;
4325;SDS011;58429;49.826;10.880;2022-11-15T01:46:54;12.8;;;5.1;;
4325;SDS011;58429;49.826;10.880;2022-11-15T01:47:54;19;;;7.1;;
4325;SDS011;58429;49.826;10.880;2022-11-15T01:48:54;19;;;7.1;;
4325;SDS011;58429;49.826;10.880;2022-11-15T01:49:56;19;;;7.1;;
4325;SDS011;58429;49.826;10.880;2022-11-15T01:50:54;24.5;;;9.5;;
4325;SDS011;58429;49.826;10.880;2022-11-15T01:51:54;24.5;;;9.5;;
4325;SDS011;58429;49.826;10.880;2022-11-15T01:52:54;24.5;;;9.5;;
4325;SDS011;58429;49.826;10.880;2022-11-15T01:53:55;25.6;;;9.6;;
4325;SDS011;58429;49.826;10.880;2022-11-15T01:54:56;25.6;;;9.6;;
4325;SDS011;58429;49.826;10.880;2022-11-15T01:55:54;25.6;;;9.6;;
4325;SDS011;58429;49.826;10.880;2022-11-15T01:56:55;34.6;;;13.8;;
4325;SDS011;58429;49.826;10.880;2022-11-15T01:57:55;34.6;;;13.8;;
4325;SDS011;58429;49.826;10.880;2022-11-15T01:58:55;34.6;;;13.8;;
4325;SDS011;58429;49.826;10.880;2022-11-15T01:59:54;29.2;;;11.4;;
4325;SDS011;58429;49.826;10.880;2022-11-15T02:00:54;29.2;;;11.4;;
4325;SDS011;58429;49.826;10.880;2022-11-15T02:01:54;29.2;;;11.4;;
4325;SDS011;58429;49.826;10.880;2022-11-15T02:02:54;26.8;;;11;;
4325;SDS011;58429;49.826;10.880;2022-11-15T02:03:56;26.8;;;11;;
4325;SDS011;58429;49.826;10.880;2022-11-15T02:04:54;26.8;;;11;;
4325;SDS011;58429;49.826;10.880;2022-11-15T02:05:54;15.6;;;6.9;;
4325;SDS011;58429;49.826;10.880;2022-11-15T02:06:54;15.6;;;6.9;;
4325;SDS011;58429;49.826;10.880;2022-11-15T02:07:54;15.6;;;6.9;;
4325;SDS011;58429;49.826;10.880;2022-11-15T02:08:54;12.7;;;6.1;;
4325;SDS011;58429;49.826;10.880;2022-11-15T02:09:54;12.7;;;6.1;;
4325;SDS011;58429;49.826;10.880;2022-11-15T02:10:54;12.7;;;6.1;;
4325;SDS011;58429;49.826;10.880;2022-11-15T02:11:54;13.1;;;5.9;;
4325;SDS011;58429;49.826;10.880;2022-11-15T02:12:54;13.1;;;5.9;;
4325;SDS011;58429;49.826;10.880;2022-11-15T02:13:54;13.1;;;5.9;;
4325;SDS011;58429;49.826;10.880;2022-11-15T02:14:54;9.9;;;4.4;;
4325;SDS011;58429;49.826;10.880;2022-11-15T02:15:57;9.9;;;4.4;;
4325;SDS011;58429;49.826;10.880;2022-11-15T02:16:56;9.9;;;4.4;;
4325;SDS011;58429;49.826;10.880;2022-11-15T02:17:58;10.4;;;5.2;;
4325;SDS011;58429;49.826;10.880;2022-11-15T02:18:55;10.4;;;5.2;;
4325;SDS011;58429;49.826;10.880;2022-11-15T02:20:03;10.4;;;5.2;;
4325;SDS011;58429;49.826;10.880;2022-11-15T02:20:56;9.8;;;4.7;;
4325;SDS011;58429;49.826;10.880;2022-11-15T02:21:56;9.8;;;4.7;;
4325;SDS011;58429;49.826;10.880;2022-11-15T02:22:59;9.8;;;4.7;;
4325;SDS011;58429;49.826;10.880;2022-11-15T02:24:00;9.8;;;4.9;;
4325;SDS011;58429;49.826;10.880;2022-11-15T02:25:00;9.8;;;4.9;;
4325;SDS011;58429;49.826;10.880;2022-11-15T02:25:57;9.8;;;4.9;;
4325;SDS011;58429;49.826;10.880;2022-11-15T02:28:05;10.4;;;4.7;;
4325;SDS011;58429;49.826;10.880;2022-11-15T02:28:15;10.4;;;4.7;;
4325;SDS011;58429;49.826;10.880;2022-11-15T02:28:56;10.4;;;4.7;;
4325;SDS011;58429;49.826;10.880;2022-11-15T02:30:29;10.2;;;4.6;;
4325;SDS011;58429;49.826;10.880;2022-11-15T02:30:55;10.2;;;4.6;;
4325;SDS011;58429;49.826;10.880;2022-11-15T02:31:55;10.2;;;4.6;;
4325;SDS011;58429;49.826;10.880;2022-11-15T02:32:56;10.7;;;4.4;;
4325;SDS011;58429;49.826;10.880;2022-11-15T02:33:57;10.7;;;4.4;;
4325;SDS011;58429;49.826;10.880;2022-11-15T02:34:55;10.7;;;4.4;;
4325;SDS011;58429;49.826;10.880;2022-11-15T02:35:57;9.9;;;5;;
4325;SDS011;58429;49.826;10.880;2022-11-15T02:36:57;9.9;;;5;;
4325;SDS011;58429;49.826;10.880;2022-11-15T02:37:55;9.9;;;5;;
4325;SDS011;58429;49.826;10.880;2022-11-15T02:38:57;10.1;;;4.7;;
4325;SDS011;58429;49.826;10.880;2022-11-15T02:39:56;10.1;;;4.7;;
4325;SDS011;58429;49.826;10.880;2022-11-15T02:40:56;10.1;;;4.7;;
4325;SDS011;58429;49.826;10.880;2022-11-15T02:41:55;10.4;;;4.9;;
4325;SDS011;58429;49.826;10.880;2022-11-15T02:42:55;10.4;;;4.9;;
4325;SDS011;58429;49.826;10.880;2022-11-15T02:43:56;10.4;;;4.9;;
4325;SDS011;58429;49.826;10.880;2022-11-15T02:44:55;10.2;;;4.7;;
4325;SDS011;58429;49.826;10.880;2022-11-15T02:45:56;10.2;;;4.7;;
4325;SDS011;58429;49.826;10.880;2022-11-15T02:46:55;10.2;;;4.7;;
4325;SDS011;58429;49.826;10.880;2022-11-15T02:47:54;9.6;;;4.7;;
4325;SDS011;58429;49.826;10.880;2022-11-15T02:48:54;9.6;;;4.7;;
4325;SDS011;58429;49.826;10.880;2022-11-15T02:49:55;9.6;;;4.7;;
4325;SDS011;58429;49.826;10.880;2022-11-15T02:50:54;10.3;;;4.2;;
4325;SDS011;58429;49.826;10.880;2022-11-15T02:51:54;10.3;;;4.2;;
4325;SDS011;58429;49.826;10.880;2022-11-15T02:52:54;10.3;;;4.2;;
4325;SDS011;58429;49.826;10.880;2022-11-15T02:53:54;10.8;;;4.7;;
4325;SDS011;58429;49.826;10.880;2022-11-15T02:54:55;10.8;;;4.7;;
4325;SDS011;58429;49.826;10.880;2022-11-15T02:55:55;10.8;;;4.7;;
4325;SDS011;58429;49.826;10.880;2022-11-15T02:56:56;10.8;;;4.7;;
4325;SDS011;58429;49.826;10.880;2022-11-15T02:57:57;9.3;;;4.6;;
4325;SDS011;58429;49.826;10.880;2022-11-15T02:58:58;9.3;;;4.6;;
4325;SDS011;58429;49.826;10.880;2022-11-15T03:00:04;9.3;;;4.6;;
4325;SDS011;58429;49.826;10.880;2022-11-15T03:00:56;10.4;;;4.8;;
4325;SDS011;58429;49.826;10.880;2022-11-15T03:01:58;10.4;;;4.8;;
4325;SDS011;58429;49.826;10.880;2022-11-15T03:03:06;10.4;;;4.8;;
4325;SDS011;58429;49.826;10.880;2022-11-15T03:03:57;9.3;;;4.1;;
4325;SDS011;58429;49.826;10.880;2022-11-15T03:04:55;9.3;;;4.1;;
4325;SDS011;58429;49.826;10.880;2022-11-15T03:05:56;9.3;;;4.1;;
4325;SDS011;58429;49.826;10.880;2022-11-15T03:06:57;9.5;;;4.5;;
4325;SDS011;58429;49.826;10.880;2022-11-15T03:07:56;9.5;;;4.5;;
4325;SDS011;58429;49.826;10.880;2022-11-15T03:08:57;9.5;;;4.5;;
4325;SDS011;58429;49.826;10.880;2022-11-15T03:09:55;10.4;;;4.6;;
4325;SDS011;58429;49.826;10.880;2022-11-15T03:10:56;10.4;;;4.6;;
4325;SDS011;58429;49.826;10.880;2022-11-15T03:11:56;10.4;;;4.6;;
4325;SDS011;58429;49.826;10.880;2022-11-15T03:12:55;10.6;;;5;;
4325;SDS011;58429;49.826;10.880;2022-11-15T03:13:56;10.6;;;5;;
4325;SDS011;58429;49.826;10.880;2022-11-15T03:14:55;10.6;;;5;;
4325;SDS011;58429;49.826;10.880;2022-11-15T03:15:56;11;;;4.9;;
4325;SDS011;58429;49.826;10.880;2022-11-15T03:16:56;11;;;4.9;;
4325;SDS011;58429;49.826;10.880;2022-11-15T03:17:55;11;;;4.9;;
4325;SDS011;58429;49.826;10.880;2022-11-15T03:18:55;10.6;;;5;;
4325;SDS011;58429;49.826;10.880;2022-11-15T03:19:55;10.6;;;5;;
4325;SDS011;58429;49.826;10.880;2022-11-15T03:20:54;10.6;;;5;;
4325;SDS011;58429;49.826;10.880;2022-11-15T03:21:55;9.4;;;4.6;;
4325;SDS011;58429;49.826;10.880;2022-11-15T03:22:55;9.4;;;4.6;;
4325;SDS011;58429;49.826;10.880;2022-11-15T03:23:54;9.4;;;4.6;;
4325;SDS011;58429;49.826;10.880;2022-11-15T03:24:56;9.6;;;4.8;;
4325;SDS011;58429;49.826;10.880;2022-11-15T03:25:54;9.6;;;4.8;;
4325;SDS011;58429;49.826;10.880;2022-11-15T03:26:54;9.6;;;4.8;;
4325;SDS011;58429;49.826;10.880;2022-11-15T03:27:56;10.3;;;4.7;;
4325;SDS011;58429;49.826;10.880;2022-11-15T03:28:55;10.3;;;4.7;;
4325;SDS011;58429;49.826;10.880;2022-11-15T03:29:55;10.3;;;4.7;;
4325;SDS011;58429;49.826;10.880;2022-11-15T03:30:54;11.5;;;4.5;;
4325;SDS011;58429;49.826;10.880;2022-11-15T03:31:55;11.5;;;4.5;;
4325;SDS011;58429;49.826;10.880;2022-11-15T03:32:55;11.5;;;4.5;;
4325;SDS011;58429;49.826;10.880;2022-11-15T03:33:55;10.6;;;4.7;;
4325;SDS011;58429;49.826;10.880;2022-11-15T03:34:55;10.6;;;4.7;;
4325;SDS011;58429;49.826;10.880;2022-11-15T03:35:54;10.6;;;4.7;;
4325;SDS011;58429;49.826;10.880;2022-11-15T03:36:54;10.8;;;4.4;;
4325;SDS011;58429;49.826;10.880;2022-11-15T03:37:56;10.8;;;4.4;;
4325;SDS011;58429;49.826;10.880;2022-11-15T03:38:55;10.8;;;4.4;;
4325;SDS011;58429;49.826;10.880;2022-11-15T03:39:55;11.5;;;4.4;;
4325;SDS011;58429;49.826;10.880;2022-11-15T03:40:55;11.5;;;4.4;;
4325;SDS011;58429;49.826;10.880;2022-11-15T03:41:56;11.5;;;4.4;;
4325;SDS011;58429;49.826;10.880;2022-11-15T03:42:57;10;;;4.5;;
4325;SDS011;58429;49.826;10.880;2022-11-15T03:43:55;10;;;4.5;;
4325;SDS011;58429;49.826;10.880;2022-11-15T03:44:56;10;;;4.5;;
4325;SDS011;58429;49.826;10.880;2022-11-15T03:45:55;10;;;4.6;;
4325;SDS011;58429;49.826;10.880;2022-11-15T03:46:56;10;;;4.6;;
4325;SDS011;58429;49.826;10.880;2022-11-15T03:47:57;10;;;4.6;;
4325;SDS011;58429;49.826;10.880;2022-11-15T03:48:56;9.2;;;4.3;;
4325;SDS011;58429;49.826;10.880;2022-11-15T03:49:57;9.2;;;4.3;;
4325;SDS011;58429;49.826;10.880;2022-11-15T03:50:55;9.2;;;4.3;;
4325;SDS011;58429;49.826;10.880;2022-11-15T03:51:56;9.7;;;4.6;;
4325;SDS011;58429;49.826;10.880;2022-11-15T03:52:55;9.7;;;4.6;;
4325;SDS011;58429;49.826;10.880;2022-11-15T03:53:55;9.7;;;4.6;;
4325;SDS011;58429;49.826;10.880;2022-11-15T03:54:55;10.7;;;4.7;;
4325;SDS011;58429;49.826;10.880;2022-11-15T03:55:54;10.7;;;4.7;;
4325;SDS011;58429;49.826;10.880;2022-11-15T03:56:54;10.7;;;4.7;;
4325;SDS011;58429;49.826;10.880;2022-11-15T03:57:56;9.8;;;4.4;;
4325;SDS011;58429;49.826;10.880;2022-11-15T03:58:54;9.8;;;4.4;;
4325;SDS011;58429;49.826;10.880;2022-11-15T03:59:55;9.8;;;4.4;;
4325;SDS011;58429;49.826;10.880;2022-11-15T04:00:55;10.4;;;4.5;;
4325;SDS011;58429;49.826;10.880;2022-11-15T04:01:55;10.4;;;4.5;;
4325;SDS011;58429;49.826;10.880;2022-11-15T04:02:55;10.4;;;4.5;;
4325;SDS011;58429;49.826;10.880;2022-11-15T04:03:54;10.1;;;4.7;;
4325;SDS011;58429;49.826;10.880;2022-11-15T04:04:55;10.1;;;4.7;;
4325;SDS011;58429;49.826;10.880;2022-11-15T04:05:55;10.1;;;4.7;;
4325;SDS011;58429;49.826;10.880;2022-11-15T04:06:55;9.5;;;4.5;;
4325;SDS011;58429;49.826;10.880;2022-11-15T04:07:54;9.5;;;4.5;;
4325;SDS011;58429;49.826;10.880;2022-11-15T04:08:55;9.5;;;4.5;;
4325;SDS011;58429;49.826;10.880;2022-11-15T04:09:54;10.4;;;4.8;;
4325;SDS011;58429;49.826;10.880;2022-11-15T04:10:55;10.4;;;4.8;;
4325;SDS011;58429;49.826;10.880;2022-11-15T04:11:55;10.4;;;4.8;;
4325;SDS011;58429;49.826;10.880;2022-11-15T04:12:55;10.5;;;4.9;;
4325;SDS011;58429;49.826;10.880;2022-11-15T04:13:55;10.5;;;4.9;;
4325;SDS011;58429;49.826;10.880;2022-11-15T04:14:55;10.5;;;4.9;;
4325;SDS011;58429;49.826;10.880;2022-11-15T04:15:55;10.2;;;5;;
4325;SDS011;58429;49.826;10.880;2022-11-15T04:16:55;10.2;;;5;;
4325;SDS011;58429;49.826;10.880;2022-11-15T04:17:55;10.2;;;5;;
4325;SDS011;58429;49.826;10.880;2022-11-15T04:18:55;9.2;;;4.3;;
4325;SDS011;58429;49.826;10.880;2022-11-15T04:19:55;9.2;;;4.3;;
4325;SDS011;58429;49.826;10.880;2022-11-15T04:20:55;9.2;;;4.3;;
4325;SDS011;58429;49.826;10.880;2022-11-15T04:21:55;11.9;;;4.9;;
4325;SDS011;58429;49.826;10.880;2022-11-15T04:22:55;11.9;;;4.9;;
4325;SDS011;58429;49.826;10.880;2022-11-15T04:23:55;11.9;;;4.9;;
4325;SDS011;58429;49.826;10.880;2022-11-15T04:24:55;8.9;;;4.2;;
4325;SDS011;58429;49.826;10.880;2022-11-15T04:25:55;8.9;;;4.2;;
4325;SDS011;58429;49.826;10.880;2022-11-15T04:26:55;8.9;;;4.2;;
4325;SDS011;58429;49.826;10.880;2022-11-15T04:27:55;10.1;;;4.5;;
4325;SDS011;58429;49.826;10.880;2022-11-15T04:28:55;10.1;;;4.5;;
4325;SDS011;58429;49.826;10.880;2022-11-15T04:29:55;10.1;;;4.5;;
4325;SDS011;58429;49.826;10.880;2022-11-15T04:30:55;10.5;;;4.6;;
4325;SDS011;58429;49.826;10.880;2022-11-15T04:31:55;10.5;;;4.6;;
4325;SDS011;58429;49.826;10.880;2022-11-15T04:32:55;10.5;;;4.6;;
4325;SDS011;58429;49.826;10.880;2022-11-15T04:33:55;9.4;;;4.5;;
4325;SDS011;58429;49.826;10.880;2022-11-15T04:34:55;9.4;;;4.5;;
4325;SDS011;58429;49.826;10.880;2022-11-15T04:35:55;9.4;;;4.5;;
4325;SDS011;58429;49.826;10.880;2022-11-15T04:36:55;9;;;4.3;;
4325;SDS011;58429;49.826;10.880;2022-11-15T04:37:55;9;;;4.3;;
4325;SDS011;58429;49.826;10.880;2022-11-15T04:38:55;9;;;4.3;;
4325;SDS011;58429;49.826;10.880;2022-11-15T04:39:55;9.2;;;4.5;;
4325;SDS011;58429;49.826;10.880;2022-11-15T04:40:55;9.2;;;4.5;;
4325;SDS011;58429;49.826;10.880;2022-11-15T04:41:55;9.2;;;4.5;;
4325;SDS011;58429;49.826;10.880;2022-11-15T04:42:55;8.5;;;4.3;;
4325;SDS011;58429;49.826;10.880;2022-11-15T04:43:55;8.5;;;4.3;;
4325;SDS011;58429;49.826;10.880;2022-11-15T04:44:55;8.5;;;4.3;;
4325;SDS011;58429;49.826;10.880;2022-11-15T04:45:55;8.7;;;4.2;;
4325;SDS011;58429;49.826;10.880;2022-11-15T04:46:55;8.7;;;4.2;;
4325;SDS011;58429;49.826;10.880;2022-11-15T04:47:55;8.7;;;4.2;;
4325;SDS011;58429;49.826;10.880;2022-11-15T04:48:55;8.7;;;4.2;;
4325;SDS011;58429;49.826;10.880;2022-11-15T04:49:55;10.3;;;4.3;;
4325;SDS011;58429;49.826;10.880;2022-11-15T04:50:55;10.3;;;4.3;;
4325;SDS011;58429;49.826;10.880;2022-11-15T04:51:55;10.3;;;4.3;;
4325;SDS011;58429;49.826;10.880;2022-11-15T04:52:55;9.8;;;4.6;;
4325;SDS011;58429;49.826;10.880;2022-11-15T04:53:55;9.8;;;4.6;;
4325;SDS011;58429;49.826;10.880;2022-11-15T04:54:55;9.8;;;4.6;;
4325;SDS011;58429;49.826;10.880;2022-11-15T04:55:55;9.8;;;4.3;;
4325;SDS011;58429;49.826;10.880;2022-11-15T04:56:55;9.8;;;4.3;;
4325;SDS011;58429;49.826;10.880;2022-11-15T04:57:58;9.8;;;4.3;;
4325;SDS011;58429;49.826;10.880;2022-11-15T04:58:55;9.4;;;4.6;;
4325;SDS011;58429;49.826;10.880;2022-11-15T04:59:55;9.4;;;4.6;;
4325;SDS011;58429;49.826;10.880;2022-11-15T05:00:55;9.4;;;4.6;;
4325;SDS011;58429;49.826;10.880;2022-11-15T05:01:55;9.1;;;4.4;;
4325;SDS011;58429;49.826;10.880;2022-11-15T05:02:55;9.1;;;4.4;;
4325;SDS011;58429;49.826;10.880;2022-11-15T05:03:55;9.1;;;4.4;;
4325;SDS011;58429;49.826;10.880;2022-11-15T05:04:55;21.5;;;8.9;;
4325;SDS011;58429;49.826;10.880;2022-11-15T05:05:55;21.5;;;8.9;;
4325;SDS011;58429;49.826;10.880;2022-11-15T05:06:55;21.5;;;8.9;;
4325;SDS011;58429;49.826;10.880;2022-11-15T05:07:55;28.5;;;12.5;;
4325;SDS011;58429;49.826;10.880;2022-11-15T05:08:55;28.5;;;12.5;;
4325;SDS011;58429;49.826;10.880;2022-11-15T05:09:55;28.5;;;12.5;;
4325;SDS011;58429;49.826;10.880;2022-11-15T05:10:55;12.9;;;6;;
4325;SDS011;58429;49.826;10.880;2022-11-15T05:11:55;12.9;;;6;;
4325;SDS011;58429;49.826;10.880;2022-11-15T05:12:55;12.9;;;6;;
4325;SDS011;58429;49.826;10.880;2022-11-15T05:13:55;11;;;5.1;;
4325;SDS011;58429;49.826;10.880;2022-11-15T05:14:55;11;;;5.1;;
4325;SDS011;58429;49.826;10.880;2022-11-15T05:15:55;11;;;5.1;;
4325;SDS011;58429;49.826;10.880;2022-11-15T05:16:55;10.5;;;4.7;;
4325;SDS011;58429;49.826;10.880;2022-11-15T05:17:57;10.5;;;4.7;;
4325;SDS011;58429;49.826;10.880;2022-11-15T05:18:55;10.5;;;4.7;;
4325;SDS011;58429;49.826;10.880;2022-11-15T05:19:55;10.1;;;4.7;;
4325;SDS011;58429;49.826;10.880;2022-11-15T05:20:55;10.1;;;4.7;;
4325;SDS011;58429;49.826;10.880;2022-11-15T05:21:55;10.1;;;4.7;;
4325;SDS011;58429;49.826;10.880;2022-11-15T05:22:55;10.5;;;5.1;;
4325;SDS011;58429;49.826;10.880;2022-11-15T05:23:55;10.5;;;5.1;;
4325;SDS011;58429;49.826;10.880;2022-11-15T05:24:55;10.5;;;5.1;;
4325;SDS011;58429;49.826;10.880;2022-11-15T05:25:58;9.7;;;4.2;;
4325;SDS011;58429;49.826;10.880;2022-11-15T05:26:55;9.7;;;4.2;;
4325;SDS011;58429;49.826;10.880;2022-11-15T05:27:55;9.7;;;4.2;;
4325;SDS011;58429;49.826;10.880;2022-11-15T05:28:55;10;;;4.1;;
4325;SDS011;58429;49.826;10.880;2022-11-15T05:29:55;10;;;4.1;;
4325;SDS011;58429;49.826;10.880;2022-11-15T05:31:00;10;;;4.1;;
4325;SDS011;58429;49.826;10.880;2022-11-15T05:31:55;9.8;;;4.3;;
4325;SDS011;58429;49.826;10.880;2022-11-15T05:32:55;9.8;;;4.3;;
4325;SDS011;58429;49.826;10.880;2022-11-15T05:33:55;9.8;;;4.3;;
4325;SDS011;58429;49.826;10.880;2022-11-15T05:34:55;9.6;;;4.7;;
4325;SDS011;58429;49.826;10.880;2022-11-15T05:35:56;9.6;;;4.7;;
4325;SDS011;58429;49.826;10.880;2022-11-15T05:36:55;9.6;;;4.7;;
4325;SDS011;58429;49.826;10.880;2022-11-15T05:37:55;10.2;;;4.6;;
4325;SDS011;58429;49.826;10.880;2022-11-15T05:38:55;10.2;;;4.6;;
4325;SDS011;58429;49.826;10.880;2022-11-15T05:39:55;10.2;;;4.6;;
4325;SDS011;58429;49.826;10.880;2022-11-15T05:40:55;8.7;;;4.4;;
4325;SDS011;58429;49.826;10.880;2022-11-15T05:41:55;8.7;;;4.4;;
4325;SDS011;58429;49.826;10.880;2022-11-15T05:42:55;8.7;;;4.4;;
4325;SDS011;58429;49.826;10.880;2022-11-15T05:43:55;9.5;;;4.2;;
4325;SDS011;58429;49.826;10.880;2022-11-15T05:44:55;9.5;;;4.2;;
4325;SDS011;58429;49.826;10.880;2022-11-15T05:45:55;9.5;;;4.2;;
4325;SDS011;58429;49.826;10.880;2022-11-15T05:46:55;9.2;;;4;;
4325;SDS011;58429;49.826;10.880;2022-11-15T05:47:55;9.2;;;4;;
4325;SDS011;58429;49.826;10.880;2022-11-15T05:48:55;9.2;;;4;;
4325;SDS011;58429;49.826;10.880;2022-11-15T05:49:55;8.9;;;4.2;;
4325;SDS011;58429;49.826;10.880;2022-11-15T05:50:55;8.9;;;4.2;;
4325;SDS011;58429;49.826;10.880;2022-11-15T05:51:55;8.9;;;4.2;;
4325;SDS011;58429;49.826;10.880;2022-11-15T05:52:55;13.2;;;4.3;;
4325;SDS011;58429;49.826;10.880;2022-11-15T05:53:55;13.2;;;4.3;;
4325;SDS011;58429;49.826;10.880;2022-11-15T05:54:55;13.2;;;4.3;;
4325;SDS011;58429;49.826;10.880;2022-11-15T05:55:55;9.6;;;4.1;;
4325;SDS011;58429;49.826;10.880;2022-11-15T05:56:55;9.6;;;4.1;;
4325;SDS011;58429;49.826;10.880;2022-11-15T05:57:55;9.6;;;4.1;;
4325;SDS011;58429;49.826;10.880;2022-11-15T05:58:55;9;;;4.3;;
4325;SDS011;58429;49.826;10.880;2022-11-15T05:59:55;9;;;4.3;;
4325;SDS011;58429;49.826;10.880;2022-11-15T06:00:55;9;;;4.3;;
4325;SDS011;58429;49.826;10.880;2022-11-15T06:01:55;8.7;;;4.1;;
4325;SDS011;58429;49.826;10.880;2022-11-15T06:02:55;8.7;;;4.1;;
4325;SDS011;58429;49.826;10.880;2022-11-15T06:03:55;8.7;;;4.1;;
4325;SDS011;58429;49.826;10.880;2022-11-15T06:04:55;9;;;3.8;;
4325;SDS011;58429;49.826;10.880;2022-11-15T06:05:55;9;;;3.8;;
4325;SDS011;58429;49.826;10.880;2022-11-15T06:06:55;9;;;3.8;;
4325;SDS011;58429;49.826;10.880;2022-11-15T06:07:56;10.1;;;4.4;;
4325;SDS011;58429;49.826;10.880;2022-11-15T06:08:55;10.1;;;4.4;;
4325;SDS011;58429;49.826;10.880;2022-11-15T06:09:55;10.1;;;4.4;;
4325;SDS011;58429;49.826;10.880;2022-11-15T06:10:55;8.7;;;3.9;;